sensor_id;sensor_type;location;lat;lon;timestamp;pressure;altitude;pressure_sealevel;temperature;humidity
48204;BME280;33994;50.998;5.864;2024-02-14T00:02:33;101025.34;;;7.69;100.00
48204;BME280;33994;50.998;5.864;2024-02-14T00:05:37;101032.28;;;7.70;100.00
48204;BME280;33994;50.998;5.864;2024-02-14T00:08:41;101021.00;;;7.73;100.00
48204;BME280;33994;50.998;5.864;2024-02-14T00:11:45;101024.47;;;7.75;100.00
48204;BME280;33994;50.998;5.864;2024-02-14T00:14:48;101021.00;;;7.74;100.00
48204;BME280;33994;50.998;5.864;2024-02-14T00:17:51;101017.53;;;7.74;100.00
48204;BME280;33994;50.998;5.864;2024-02-14T00:20:54;101030.56;;;7.75;100.00
48204;BME280;33994;50.998;5.864;2024-02-14T00:24:00;101030.56;;;7.75;100.00
48204;BME280;33994;50.998;5.864;2024-02-14T00:27:03;101024.47;;;7.75;100.00
48204;BME280;33994;50.998;5.864;2024-02-14T00:30:07;101021.00;;;7.76;100.00
48204;BME280;33994;50.998;5.864;2024-02-14T00:33:10;101012.34;;;7.74;100.00
48204;BME280;33994;50.998;5.864;2024-02-14T00:36:13;101007.13;;;7.78;100.00
48204;BME280;33994;50.998;5.864;2024-02-14T00:39:18;101006.22;;;7.81;100.00
48204;BME280;33994;50.998;5.864;2024-02-14T00:42:21;101007.13;;;7.83;100.00
48204;BME280;33994;50.998;5.864;2024-02-14T00:45:24;101014.03;;;7.84;100.00
48204;BME280;33994;50.998;5.864;2024-02-14T00:48:27;101003.63;;;7.84;100.00
48204;BME280;33994;50.998;5.864;2024-02-14T00:51:30;101003.63;;;7.84;100.00
48204;BME280;33994;50.998;5.864;2024-02-14T00:54:35;101004.50;;;7.83;100.00
48204;BME280;33994;50.998;5.864;2024-02-14T00:57:38;100996.69;;;7.86;100.00
48204;BME280;33994;50.998;5.864;2024-02-14T01:00:41;100994.09;;;7.86;100.00
48204;BME280;33994;50.998;5.864;2024-02-14T01:03:45;100995.81;;;7.84;100.00
48204;BME280;33994;50.998;5.864;2024-02-14T01:06:48;101000.16;;;7.90;100.00
48204;BME280;33994;50.998;5.864;2024-02-14T01:09:53;100986.25;;;7.95;100.00
48204;BME280;33994;50.998;5.864;2024-02-14T01:12:57;100994.06;;;7.98;100.00
48204;BME280;33994;50.998;5.864;2024-02-14T01:16:00;100994.94;;;8.00;100.00
48204;BME280;33994;50.998;5.864;2024-02-14T01:19:03;101000.16;;;8.00;100.00
48204;BME280;33994;50.998;5.864;2024-02-14T01:22:07;101004.50;;;7.98;100.00
48204;BME280;33994;50.998;5.864;2024-02-14T01:25:11;100994.94;;;7.97;100.00
48204;BME280;33994;50.998;5.864;2024-02-14T01:28:14;100991.47;;;7.98;100.00
48204;BME280;33994;50.998;5.864;2024-02-14T01:31:17;100989.75;;;8.00;100.00
48204;BME280;33994;50.998;5.864;2024-02-14T01:34:21;100994.94;;;8.00;100.00
48204;BME280;33994;50.998;5.864;2024-02-14T01:37:24;100992.34;;;8.02;100.00
48204;BME280;33994;50.998;5.864;2024-02-14T01:40:28;100986.25;;;8.01;100.00
48204;BME280;33994;50.998;5.864;2024-02-14T01:43:32;100982.78;;;8.02;100.00
48204;BME280;33994;50.998;5.864;2024-02-14T01:46:35;100995.78;;;8.04;100.00
48204;BME280;33994;50.998;5.864;2024-02-14T01:49:38;101002.75;;;8.05;100.00
48204;BME280;33994;50.998;5.864;2024-02-14T01:52:42;101014.03;;;8.06;100.00
48204;BME280;33994;50.998;5.864;2024-02-14T01:55:47;101020.97;;;8.07;100.00
48204;BME280;33994;50.998;5.864;2024-02-14T01:58:50;101009.66;;;8.08;100.00
48204;BME280;33994;50.998;5.864;2024-02-14T02:01:54;101006.22;;;8.10;100.00
48204;BME280;33994;50.998;5.864;2024-02-14T02:04:58;101005.31;;;8.11;100.00
48204;BME280;33994;50.998;5.864;2024-02-14T02:08:01;101012.28;;;8.11;100.00
48204;BME280;33994;50.998;5.864;2024-02-14T02:11:05;101011.41;;;8.13;100.00
48204;BME280;33994;50.998;5.864;2024-02-14T02:14:08;101014.88;;;8.17;100.00
48204;BME280;33994;50.998;5.864;2024-02-14T02:17:11;101013.16;;;8.17;100.00
48204;BME280;33994;50.998;5.864;2024-02-14T02:20:15;101013.16;;;8.16;100.00
48204;BME280;33994;50.998;5.864;2024-02-14T02:23:21;101017.50;;;8.17;100.00
48204;BME280;33994;50.998;5.864;2024-02-14T02:26:24;101011.41;;;8.18;100.00
48204;BME280;33994;50.998;5.864;2024-02-14T02:29:27;101007.91;;;8.19;100.00
48204;BME280;33994;50.998;5.864;2024-02-14T02:32:30;101007.06;;;8.18;100.00
48204;BME280;33994;50.998;5.864;2024-02-14T02:35:34;101005.31;;;8.19;100.00
48204;BME280;33994;50.998;5.864;2024-02-14T02:38:38;101007.91;;;8.19;100.00
48204;BME280;33994;50.998;5.864;2024-02-14T02:41:42;101009.66;;;8.20;100.00
48204;BME280;33994;50.998;5.864;2024-02-14T02:44:46;101011.41;;;8.21;100.00
48204;BME280;33994;50.998;5.864;2024-02-14T02:47:50;101014.00;;;8.21;100.00
48204;BME280;33994;50.998;5.864;2024-02-14T02:50:53;101023.56;;;8.20;100.00
48204;BME280;33994;50.998;5.864;2024-02-14T02:53:57;101012.28;;;8.20;100.00
48204;BME280;33994;50.998;5.864;2024-02-14T02:57:00;101020.94;;;8.19;100.00
48204;BME280;33994;50.998;5.864;2024-02-14T03:00:06;101016.63;;;8.16;100.00
48204;BME280;33994;50.998;5.864;2024-02-14T03:03:10;101014.03;;;8.16;100.00
48204;BME280;33994;50.998;5.864;2024-02-14T03:06:13;101016.63;;;8.16;100.00
48204;BME280;33994;50.998;5.864;2024-02-14T03:09:18;101020.97;;;8.16;100.00
48204;BME280;33994;50.998;5.864;2024-02-14T03:12:21;101014.00;;;8.15;100.00
48204;BME280;33994;50.998;5.864;2024-02-14T03:15:25;101020.09;;;8.14;100.00
48204;BME280;33994;50.998;5.864;2024-02-14T03:18:28;101025.31;;;8.14;100.00
48204;BME280;33994;50.998;5.864;2024-02-14T03:21:32;101019.22;;;8.12;100.00
48204;BME280;33994;50.998;5.864;2024-02-14T03:24:36;101017.50;;;8.12;100.00
48204;BME280;33994;50.998;5.864;2024-02-14T03:27:40;101005.34;;;8.16;100.00
48204;BME280;33994;50.998;5.864;2024-02-14T03:30:43;101004.47;;;8.14;100.00
48204;BME280;33994;50.998;5.864;2024-02-14T03:33:46;101004.47;;;8.14;100.00
48204;BME280;33994;50.998;5.864;2024-02-14T03:36:49;101001.84;;;8.14;100.00
48204;BME280;33994;50.998;5.864;2024-02-14T03:39:54;101007.06;;;8.15;100.00
48204;BME280;33994;50.998;5.864;2024-02-14T03:42:57;101018.34;;;8.17;100.00
48204;BME280;33994;50.998;5.864;2024-02-14T03:46:00;101004.47;;;8.09;100.00
48204;BME280;33994;50.998;5.864;2024-02-14T03:49:04;101007.97;;;8.08;100.00
48204;BME280;33994;50.998;5.864;2024-02-14T03:52:07;101019.25;;;8.09;100.00
48204;BME280;33994;50.998;5.864;2024-02-14T03:55:13;101025.31;;;8.09;100.00
48204;BME280;33994;50.998;5.864;2024-02-14T03:58:16;101019.25;;;8.09;100.00
48204;BME280;33994;50.998;5.864;2024-02-14T04:01:19;101027.06;;;8.09;100.00
48204;BME280;33994;50.998;5.864;2024-02-14T04:04:22;101029.66;;;8.09;100.00
48204;BME280;33994;50.998;5.864;2024-02-14T04:07:25;101029.66;;;8.09;100.00
48204;BME280;33994;50.998;5.864;2024-02-14T04:10:30;101041.81;;;8.13;100.00
48204;BME280;33994;50.998;5.864;2024-02-14T04:13:33;101046.13;;;8.15;100.00
48204;BME280;33994;50.998;5.864;2024-02-14T04:16:37;101042.69;;;8.16;100.00
48204;BME280;33994;50.998;5.864;2024-02-14T04:19:40;101046.13;;;8.18;100.00
48204;BME280;33994;50.998;5.864;2024-02-14T04:22:43;101047.88;;;8.18;100.00
48204;BME280;33994;50.998;5.864;2024-02-14T04:25:48;101044.41;;;8.17;100.00
48204;BME280;33994;50.998;5.864;2024-02-14T04:28:51;101052.25;;;8.16;100.00
48204;BME280;33994;50.998;5.864;2024-02-14T04:31:54;101057.44;;;8.16;100.00
48204;BME280;33994;50.998;5.864;2024-02-14T04:34:58;101060.91;;;8.12;100.00
48204;BME280;33994;50.998;5.864;2024-02-14T04:38:01;101052.22;;;8.07;100.00
48204;BME280;33994;50.998;5.864;2024-02-14T04:41:06;101054.84;;;8.07;100.00
48204;BME280;33994;50.998;5.864;2024-02-14T04:44:09;101058.31;;;8.04;100.00
48204;BME280;33994;50.998;5.864;2024-02-14T04:47:12;101061.78;;;8.06;100.00
48204;BME280;33994;50.998;5.864;2024-02-14T04:50:15;101063.53;;;8.06;100.00
48204;BME280;33994;50.998;5.864;2024-02-14T04:53:18;101073.06;;;8.07;100.00
48204;BME280;33994;50.998;5.864;2024-02-14T04:56:23;101080.00;;;8.08;100.00
48204;BME280;33994;50.998;5.864;2024-02-14T04:59:26;101074.81;;;8.08;100.00
48204;BME280;33994;50.998;5.864;2024-02-14T05:02:29;101074.81;;;8.05;100.00
48204;BME280;33994;50.998;5.864;2024-02-14T05:05:32;101087.84;;;8.05;100.00
48204;BME280;33994;50.998;5.864;2024-02-14T05:08:35;101074.81;;;8.05;100.00
48204;BME280;33994;50.998;5.864;2024-02-14T05:11:40;101065.28;;;8.05;100.00
48204;BME280;33994;50.998;5.864;2024-02-14T05:14:43;101080.91;;;8.05;100.00
48204;BME280;33994;50.998;5.864;2024-02-14T05:17:47;101069.59;;;8.08;100.00
48204;BME280;33994;50.998;5.864;2024-02-14T05:20:50;101073.06;;;8.10;100.00
48204;BME280;33994;50.998;5.864;2024-02-14T05:23:53;101076.53;;;8.12;100.00
48204;BME280;33994;50.998;5.864;2024-02-14T05:26:57;101077.41;;;8.14;100.00
48204;BME280;33994;50.998;5.864;2024-02-14T05:30:01;101073.94;;;8.16;100.00
48204;BME280;33994;50.998;5.864;2024-02-14T05:33:04;101071.31;;;8.21;100.00
48204;BME280;33994;50.998;5.864;2024-02-14T05:36:07;101079.13;;;8.22;100.00
48204;BME280;33994;50.998;5.864;2024-02-14T05:39:10;101076.53;;;8.24;100.00
48204;BME280;33994;50.998;5.864;2024-02-14T05:42:15;101067.84;;;8.25;100.00
48204;BME280;33994;50.998;5.864;2024-02-14T05:45:18;101056.53;;;8.26;100.00
48204;BME280;33994;50.998;5.864;2024-02-14T05:48:21;101071.31;;;8.27;100.00
48204;BME280;33994;50.998;5.864;2024-02-14T05:51:24;101068.69;;;8.27;100.00
48204;BME280;33994;50.998;5.864;2024-02-14T05:54:27;101074.78;;;8.29;100.00
48204;BME280;33994;50.998;5.864;2024-02-14T05:57:32;101092.13;;;8.35;100.00
48204;BME280;33994;50.998;5.864;2024-02-14T06:00:35;101073.91;;;8.36;100.00
48204;BME280;33994;50.998;5.864;2024-02-14T06:03:41;101066.94;;;8.38;100.00
48204;BME280;33994;50.998;5.864;2024-02-14T06:06:44;101069.56;;;8.40;100.00
48204;BME280;33994;50.998;5.864;2024-02-14T06:09:47;101082.59;;;8.40;100.00
48204;BME280;33994;50.998;5.864;2024-02-14T06:12:52;101073.91;;;8.36;100.00
48204;BME280;33994;50.998;5.864;2024-02-14T06:15:55;101078.25;;;8.34;100.00
48204;BME280;33994;50.998;5.864;2024-02-14T06:18:58;101086.94;;;8.36;100.00
48204;BME280;33994;50.998;5.864;2024-02-14T06:22:01;101090.44;;;8.35;100.00
48204;BME280;33994;50.998;5.864;2024-02-14T06:25:05;101092.16;;;8.33;100.00
48204;BME280;33994;50.998;5.864;2024-02-14T06:28:09;101099.09;;;8.33;100.00
48204;BME280;33994;50.998;5.864;2024-02-14T06:31:13;101093.91;;;8.28;100.00
48204;BME280;33994;50.998;5.864;2024-02-14T06:34:16;101099.97;;;8.27;100.00
48204;BME280;33994;50.998;5.864;2024-02-14T06:37:19;101096.50;;;8.26;100.00
48204;BME280;33994;50.998;5.864;2024-02-14T06:40:22;101106.06;;;8.26;100.00
48204;BME280;33994;50.998;5.864;2024-02-14T06:43:27;101102.59;;;8.25;100.00
48204;BME280;33994;50.998;5.864;2024-02-14T06:46:30;101115.59;;;8.27;100.00
48204;BME280;33994;50.998;5.864;2024-02-14T06:49:33;101121.69;;;8.26;100.00
48204;BME280;33994;50.998;5.864;2024-02-14T06:52:37;101113.88;;;8.26;100.00
48204;BME280;33994;50.998;5.864;2024-02-14T06:55:40;101126.91;;;8.27;100.00
48204;BME280;33994;50.998;5.864;2024-02-14T06:58:44;101119.97;;;8.28;100.00
48204;BME280;33994;50.998;5.864;2024-02-14T07:01:48;101119.97;;;8.28;100.00
48204;BME280;33994;50.998;5.864;2024-02-14T07:04:51;101131.22;;;8.30;100.00
48204;BME280;33994;50.998;5.864;2024-02-14T07:07:54;101113.88;;;8.32;100.00
48204;BME280;33994;50.998;5.864;2024-02-14T07:10:57;101124.31;;;8.32;100.00
48204;BME280;33994;50.998;5.864;2024-02-14T07:14:02;101124.28;;;8.34;100.00
48204;BME280;33994;50.998;5.864;2024-02-14T07:17:05;101138.19;;;8.34;100.00
48204;BME280;33994;50.998;5.864;2024-02-14T07:20:10;101143.41;;;8.34;100.00
48204;BME280;33994;50.998;5.864;2024-02-14T07:23:13;101141.66;;;8.38;100.00
48204;BME280;33994;50.998;5.864;2024-02-14T07:26:16;101139.06;;;8.36;100.00
48204;BME280;33994;50.998;5.864;2024-02-14T07:29:21;101134.69;;;8.38;100.00
48204;BME280;33994;50.998;5.864;2024-02-14T07:32:24;101132.09;;;8.38;100.00
48204;BME280;33994;50.998;5.864;2024-02-14T07:35:27;101130.34;;;8.42;100.00
48204;BME280;33994;50.998;5.864;2024-02-14T07:38:30;101133.81;;;8.42;100.00
48204;BME280;33994;50.998;5.864;2024-02-14T07:41:33;101139.03;;;8.45;100.00
48204;BME280;33994;50.998;5.864;2024-02-14T07:44:38;101136.44;;;8.45;100.00
48204;BME280;33994;50.998;5.864;2024-02-14T07:47:41;101147.75;;;8.50;100.00
48204;BME280;33994;50.998;5.864;2024-02-14T07:50:45;101151.19;;;8.52;100.00
48204;BME280;33994;50.998;5.864;2024-02-14T07:53:48;101152.94;;;8.53;100.00
48204;BME280;33994;50.998;5.864;2024-02-14T07:56:52;101151.19;;;8.56;100.00
48204;BME280;33994;50.998;5.864;2024-02-14T07:59:56;101147.72;;;8.60;100.00
48204;BME280;33994;50.998;5.864;2024-02-14T08:03:00;101152.06;;;8.64;100.00
48204;BME280;33994;50.998;5.864;2024-02-14T08:06:03;101151.19;;;8.68;100.00
48204;BME280;33994;50.998;5.864;2024-02-14T08:09:07;101149.44;;;8.70;100.00
48204;BME280;33994;50.998;5.864;2024-02-14T08:12:10;101147.69;;;8.75;100.00
48204;BME280;33994;50.998;5.864;2024-02-14T08:15:14;101146.81;;;8.76;100.00
48204;BME280;33994;50.998;5.864;2024-02-14T08:18:18;101154.63;;;8.82;100.00
48204;BME280;33994;50.998;5.864;2024-02-14T08:21:21;101151.13;;;8.86;100.00
48204;BME280;33994;50.998;5.864;2024-02-14T08:24:25;101152.84;;;8.92;100.00
48204;BME280;33994;50.998;5.864;2024-02-14T08:27:28;101148.50;;;8.95;100.00
48204;BME280;33994;50.998;5.864;2024-02-14T08:30:32;101147.59;;;8.99;100.00
48204;BME280;33994;50.998;5.864;2024-02-14T08:33:36;101142.38;;;9.02;100.00
48204;BME280;33994;50.998;5.864;2024-02-14T08:36:39;101141.50;;;9.05;100.00
48204;BME280;33994;50.998;5.864;2024-02-14T08:39:42;101147.59;;;9.09;100.00
48204;BME280;33994;50.998;5.864;2024-02-14T08:42:45;101144.09;;;9.13;100.00
48204;BME280;33994;50.998;5.864;2024-02-14T08:45:50;101145.81;;;9.20;100.00
48204;BME280;33994;50.998;5.864;2024-02-14T08:48:53;101138.84;;;9.25;100.00
48204;BME280;33994;50.998;5.864;2024-02-14T08:51:56;101140.59;;;9.31;100.00
48204;BME280;33994;50.998;5.864;2024-02-14T08:54:59;101147.53;;;9.35;100.00
48204;BME280;33994;50.998;5.864;2024-02-14T08:58:03;101151.84;;;9.39;100.00
48204;BME280;33994;50.998;5.864;2024-02-14T09:01:07;101150.09;;;9.42;100.00
48204;BME280;33994;50.998;5.864;2024-02-14T09:04:10;101151.81;;;9.46;100.00
48204;BME280;33994;50.998;5.864;2024-02-14T09:07:14;101151.81;;;9.49;100.00
48204;BME280;33994;50.998;5.864;2024-02-14T09:10:17;101169.19;;;9.52;100.00
48204;BME280;33994;50.998;5.864;2024-02-14T09:13:20;101176.97;;;9.57;100.00
48204;BME280;33994;50.998;5.864;2024-02-14T09:16:25;101171.75;;;9.60;100.00
48204;BME280;33994;50.998;5.864;2024-02-14T09:19:28;101178.69;;;9.64;100.00
48204;BME280;33994;50.998;5.864;2024-02-14T09:22:31;101186.50;;;9.67;100.00
48204;BME280;33994;50.998;5.864;2024-02-14T09:25:34;101199.56;;;9.70;100.00
48204;BME280;33994;50.998;5.864;2024-02-14T09:28:40;101190.84;;;9.71;100.00
48204;BME280;33994;50.998;5.864;2024-02-14T09:31:45;101203.00;;;9.75;100.00
48204;BME280;33994;50.998;5.864;2024-02-14T09:34:48;101212.59;;;9.76;100.00
48204;BME280;33994;50.998;5.864;2024-02-14T09:37:51;101208.25;;;9.77;100.00
48204;BME280;33994;50.998;5.864;2024-02-14T09:40:58;101197.78;;;9.78;100.00
48204;BME280;33994;50.998;5.864;2024-02-14T09:44:05;101204.72;;;9.82;100.00
48204;BME280;33994;50.998;5.864;2024-02-14T09:47:10;101216.88;;;9.86;100.00
48204;BME280;33994;50.998;5.864;2024-02-14T09:50:13;101207.28;;;9.87;100.00
48204;BME280;33994;50.998;5.864;2024-02-14T09:53:17;101222.09;;;9.89;100.00
48204;BME280;33994;50.998;5.864;2024-02-14T09:56:21;101226.44;;;9.92;100.00
48204;BME280;33994;50.998;5.864;2024-02-14T09:59:24;101222.94;;;9.90;100.00
48204;BME280;33994;50.998;5.864;2024-02-14T10:02:33;101221.22;;;9.89;100.00
48204;BME280;33994;50.998;5.864;2024-02-14T10:05:36;101218.56;;;9.96;100.00
48204;BME280;33994;50.998;5.864;2024-02-14T10:08:40;101219.44;;;9.95;100.00
48204;BME280;33994;50.998;5.864;2024-02-14T10:11:43;101209.91;;;9.91;100.00
48204;BME280;33994;50.998;5.864;2024-02-14T10:14:46;101211.63;;;9.89;100.00
48204;BME280;33994;50.998;5.864;2024-02-14T10:17:51;101210.78;;;9.89;100.00
48204;BME280;33994;50.998;5.864;2024-02-14T10:20:55;101219.47;;;9.92;100.00
48204;BME280;33994;50.998;5.864;2024-02-14T10:23:59;101213.34;;;9.93;100.00
48204;BME280;33994;50.998;5.864;2024-02-14T10:27:06;101215.06;;;9.97;100.00
48204;BME280;33994;50.998;5.864;2024-02-14T10:30:09;101214.19;;;9.98;100.00
48204;BME280;33994;50.998;5.864;2024-02-14T10:33:14;101220.28;;;10.01;100.00
48204;BME280;33994;50.998;5.864;2024-02-14T10:36:18;101222.00;;;10.05;100.00
48204;BME280;33994;50.998;5.864;2024-02-14T10:39:25;101223.72;;;10.09;100.00
48204;BME280;33994;50.998;5.864;2024-02-14T10:42:28;101227.19;;;10.11;100.00
48204;BME280;33994;50.998;5.864;2024-02-14T10:45:31;101230.66;;;10.13;100.00
48204;BME280;33994;50.998;5.864;2024-02-14T10:48:37;101227.16;;;10.15;100.00
48204;BME280;33994;50.998;5.864;2024-02-14T10:51:43;101222.78;;;10.16;100.00
48204;BME280;33994;50.998;5.864;2024-02-14T10:54:52;101221.03;;;10.18;100.00
48204;BME280;33994;50.998;5.864;2024-02-14T10:57:58;101216.66;;;10.20;100.00
48204;BME280;33994;50.998;5.864;2024-02-14T11:01:02;101231.47;;;10.22;100.00
48204;BME280;33994;50.998;5.864;2024-02-14T11:04:07;101231.44;;;10.26;100.00
48204;BME280;33994;50.998;5.864;2024-02-14T11:07:10;101228.78;;;10.29;100.00
48204;BME280;33994;50.998;5.864;2024-02-14T11:10:14;101229.66;;;10.29;100.00
48204;BME280;33994;50.998;5.864;2024-02-14T11:13:18;101226.16;;;10.32;100.00
48204;BME280;33994;50.998;5.864;2024-02-14T11:19:32;101231.41;;;10.33;100.00
48204;BME280;33994;50.998;5.864;2024-02-14T11:22:35;101233.13;;;10.33;100.00
48204;BME280;33994;50.998;5.864;2024-02-14T11:25:38;101237.47;;;10.32;100.00
48204;BME280;33994;50.998;5.864;2024-02-14T11:28:42;101237.50;;;10.29;100.00
48204;BME280;33994;50.998;5.864;2024-02-14T11:31:45;101228.78;;;10.29;100.00
48204;BME280;33994;50.998;5.864;2024-02-14T11:34:54;101231.41;;;10.30;100.00
48204;BME280;33994;50.998;5.864;2024-02-14T11:37:57;101215.72;;;10.29;100.00
48204;BME280;33994;50.998;5.864;2024-02-14T11:41:01;101212.25;;;10.28;100.00
48204;BME280;33994;50.998;5.864;2024-02-14T11:44:05;101207.88;;;10.30;100.00
48204;BME280;33994;50.998;5.864;2024-02-14T11:47:09;101207.88;;;10.30;100.00
48204;BME280;33994;50.998;5.864;2024-02-14T11:50:14;101202.63;;;10.33;100.00
48204;BME280;33994;50.998;5.864;2024-02-14T11:53:17;101210.44;;;10.36;100.00
48204;BME280;33994;50.998;5.864;2024-02-14T11:56:21;101199.13;;;10.37;100.00
48204;BME280;33994;50.998;5.864;2024-02-14T11:59:24;101199.06;;;10.40;100.00
48204;BME280;33994;50.998;5.864;2024-02-14T12:02:28;101201.69;;;10.42;100.00
48204;BME280;33994;50.998;5.864;2024-02-14T12:05:32;101205.16;;;10.42;100.00
48204;BME280;33994;50.998;5.864;2024-02-14T12:08:35;101199.03;;;10.43;100.00
48204;BME280;33994;50.998;5.864;2024-02-14T12:11:40;101205.13;;;10.44;100.00
48204;BME280;33994;50.998;5.864;2024-02-14T12:14:44;101189.47;;;10.45;100.00
48204;BME280;33994;50.998;5.864;2024-02-14T12:17:47;101187.69;;;10.46;100.00
48204;BME280;33994;50.998;5.864;2024-02-14T12:20:51;101182.44;;;10.47;100.00
48204;BME280;33994;50.998;5.864;2024-02-14T12:23:58;101183.31;;;10.48;100.00
48204;BME280;33994;50.998;5.864;2024-02-14T12:27:01;101182.44;;;10.49;100.00
48204;BME280;33994;50.998;5.864;2024-02-14T12:30:07;101191.13;;;10.53;100.00
48204;BME280;33994;50.998;5.864;2024-02-14T12:33:11;101194.59;;;10.55;100.00
48204;BME280;33994;50.998;5.864;2024-02-14T12:36:15;101191.97;;;10.55;100.00
48204;BME280;33994;50.998;5.864;2024-02-14T12:39:19;101194.63;;;10.53;100.00
48204;BME280;33994;50.998;5.864;2024-02-14T12:42:22;101186.75;;;10.52;100.00
48204;BME280;33994;50.998;5.864;2024-02-14T12:45:25;101185.94;;;10.50;100.00
48204;BME280;33994;50.998;5.864;2024-02-14T12:48:28;101198.16;;;10.46;100.00
48204;BME280;33994;50.998;5.864;2024-02-14T12:51:33;101198.16;;;10.44;100.00
48204;BME280;33994;50.998;5.864;2024-02-14T12:54:36;101195.53;;;10.46;100.00
48204;BME280;33994;50.998;5.864;2024-02-14T12:57:39;101184.22;;;10.44;100.00
48204;BME280;33994;50.998;5.864;2024-02-14T13:00:42;101191.22;;;10.42;100.00
48204;BME280;33994;50.998;5.864;2024-02-14T13:03:45;101190.38;;;10.41;100.00
48204;BME280;33994;50.998;5.864;2024-02-14T13:06:50;101194.69;;;10.44;100.00
48204;BME280;33994;50.998;5.864;2024-02-14T13:09:53;101184.28;;;10.41;100.00
48204;BME280;33994;50.998;5.864;2024-02-14T13:12:56;101182.50;;;10.41;100.00
48204;BME280;33994;50.998;5.864;2024-02-14T13:16:00;101178.16;;;10.40;100.00
48204;BME280;33994;50.998;5.864;2024-02-14T13:19:03;101184.28;;;10.38;100.00
48204;BME280;33994;50.998;5.864;2024-02-14T13:22:07;101184.28;;;10.36;100.00
48204;BME280;33994;50.998;5.864;2024-02-14T13:25:11;101173.00;;;10.34;100.00
48204;BME280;33994;50.998;5.864;2024-02-14T13:28:14;101169.50;;;10.32;100.00
48204;BME280;33994;50.998;5.864;2024-02-14T13:31:17;101181.72;;;10.33;100.00
48204;BME280;33994;50.998;5.864;2024-02-14T13:34:20;101174.72;;;10.32;100.00
48204;BME280;33994;50.998;5.864;2024-02-14T13:37:25;101175.66;;;10.30;100.00
48204;BME280;33994;50.998;5.864;2024-02-14T13:40:28;101176.50;;;10.29;100.00
48204;BME280;33994;50.998;5.864;2024-02-14T13:43:31;101175.66;;;10.30;100.00
48204;BME280;33994;50.998;5.864;2024-02-14T13:46:35;101173.03;;;10.28;100.00
48204;BME280;33994;50.998;5.864;2024-02-14T13:49:38;101179.13;;;10.29;100.00
48204;BME280;33994;50.998;5.864;2024-02-14T13:52:43;101173.91;;;10.30;100.00
48204;BME280;33994;50.998;5.864;2024-02-14T13:55:46;101169.53;;;10.29;100.00
48204;BME280;33994;50.998;5.864;2024-02-14T13:58:49;101173.88;;;10.29;100.00
48204;BME280;33994;50.998;5.864;2024-02-14T14:01:52;101182.59;;;10.29;100.00
48204;BME280;33994;50.998;5.864;2024-02-14T14:04:56;101173.91;;;10.30;100.00
48204;BME280;33994;50.998;5.864;2024-02-14T14:08:00;101166.06;;;10.30;100.00
48204;BME280;33994;50.998;5.864;2024-02-14T14:11:04;101162.56;;;10.31;100.00
48204;BME280;33994;50.998;5.864;2024-02-14T14:14:07;101174.72;;;10.32;100.00
48204;BME280;33994;50.998;5.864;2024-02-14T14:17:10;101172.13;;;10.32;100.00
48204;BME280;33994;50.998;5.864;2024-02-14T14:20:13;101173.88;;;10.32;100.00
48204;BME280;33994;50.998;5.864;2024-02-14T14:23:18;101166.03;;;10.32;100.00
48204;BME280;33994;50.998;5.864;2024-02-14T14:26:21;101176.50;;;10.30;100.00
48204;BME280;33994;50.998;5.864;2024-02-14T14:29:24;101171.28;;;10.30;100.00
48204;BME280;33994;50.998;5.864;2024-02-14T14:32:27;101175.63;;;10.31;100.00
48204;BME280;33994;50.998;5.864;2024-02-14T14:35:31;101176.50;;;10.33;100.00
48204;BME280;33994;50.998;5.864;2024-02-14T14:38:35;101178.22;;;10.34;100.00
48204;BME280;33994;50.998;5.864;2024-02-14T14:41:38;101172.09;;;10.35;100.00
48204;BME280;33994;50.998;5.864;2024-02-14T14:44:41;101164.25;;;10.35;100.00
48204;BME280;33994;50.998;5.864;2024-02-14T14:47:45;101165.13;;;10.36;100.00
48204;BME280;33994;50.998;5.864;2024-02-14T14:50:48;101179.06;;;10.36;100.00
48204;BME280;33994;50.998;5.864;2024-02-14T14:53:53;101168.59;;;10.41;100.00
48204;BME280;33994;50.998;5.864;2024-02-14T14:56:56;101165.00;;;10.48;100.00
48204;BME280;33994;50.998;5.864;2024-02-14T14:59:59;101167.59;;;10.53;100.00
48204;BME280;33994;50.998;5.864;2024-02-14T15:03:02;101174.53;;;10.57;100.00
48204;BME280;33994;50.998;5.864;2024-02-14T15:06:06;101169.28;;;10.58;100.00
48204;BME280;33994;50.998;5.864;2024-02-14T15:09:10;101171.03;;;10.58;100.00
48204;BME280;33994;50.998;5.864;2024-02-14T15:12:13;101155.38;;;10.56;100.00
48204;BME280;33994;50.998;5.864;2024-02-14T15:15:16;101170.13;;;10.59;100.00
48204;BME280;33994;50.998;5.864;2024-02-14T15:18:20;101171.03;;;10.58;100.00
48204;BME280;33994;50.998;5.864;2024-02-14T15:21:23;101170.16;;;10.56;100.00
48204;BME280;33994;50.998;5.864;2024-02-14T15:24:27;101164.06;;;10.57;100.00
48204;BME280;33994;50.998;5.864;2024-02-14T15:27:30;101169.31;;;10.57;100.00
48204;BME280;33994;50.998;5.864;2024-02-14T15:30:34;101171.03;;;10.58;100.00
48204;BME280;33994;50.998;5.864;2024-02-14T15:33:37;101164.94;;;10.57;100.00
48204;BME280;33994;50.998;5.864;2024-02-14T15:36:40;101158.84;;;10.57;100.00
48204;BME280;33994;50.998;5.864;2024-02-14T15:39:44;101158.84;;;10.57;100.00
48204;BME280;33994;50.998;5.864;2024-02-14T15:42:47;101160.56;;;10.58;100.00
48204;BME280;33994;50.998;5.864;2024-02-14T15:45:51;101167.53;;;10.59;100.00
48204;BME280;33994;50.998;5.864;2024-02-14T15:48:54;101172.75;;;10.59;100.00
48204;BME280;33994;50.998;5.864;2024-02-14T15:51:57;101172.75;;;10.59;100.00
48204;BME280;33994;50.998;5.864;2024-02-14T15:55:02;101159.69;;;10.59;100.00
48204;BME280;33994;50.998;5.864;2024-02-14T15:58:05;101165.78;;;10.59;100.00